Time;durP1;ratioP1;P1;durP2;ratioP2;P2;SDS_P1;SDS_P2;PMS_P1;PMS_P2;Temp;Humidity;BMP_temperature;BMP_pressure;BME280_temperature;BME280_humidity;BME280_pressure;Samples;Min_cycle;Max_cycle;Signal;HPM_P1;HPM_P2
2023/03/15 00:00:43;;;;;;;9.38;0.85;;;3.00;99.90;;;;;;5092032;27;20069;-78
2023/03/15 00:03:10;;;;;;;7.68;1.00;;;3.00;99.90;;;;;;5109772;27;20047;-78
2023/03/15 00:05:35;;;;;;;8.73;0.90;;;2.90;99.90;;;;;;5093009;27;20051;-78
2023/03/15 00:08:01;;;;;;;6.72;0.90;;;2.90;99.90;;;;;;5108448;27;20418;-78
2023/03/15 00:10:28;;;;;;;10.80;0.77;;;4.40;99.90;;;;;;5110550;27;20054;-78
2023/03/15 00:12:54;;;;;;;8.55;1.67;;;3.90;99.90;;;;;;5074886;27;20120;-78
2023/03/15 00:15:20;;;;;;;7.32;0.80;;;2.80;99.90;;;;;;5128674;27;20039;-78
2023/03/15 00:17:46;;;;;;;6.25;1.00;;;4.20;99.90;;;;;;5109095;27;20054;-78
2023/03/15 00:20:17;;;;;;;6.70;0.88;;;2.70;99.90;;;;;;5109455;27;20046;-77
2023/03/15 00:22:42;;;;;;;12.13;0.90;;;2.70;99.90;;;;;;5127958;27;20057;-78
2023/03/15 00:25:09;;;;;;;7.55;0.95;;;2.70;99.90;;;;;;5109263;27;20031;-78
2023/03/15 00:27:34;;;;;;;10.35;1.65;;;2.70;99.90;;;;;;5110124;27;20384;-78
2023/03/15 00:30:00;;;;;;;6.05;1.10;;;2.60;99.90;;;;;;5126410;27;20043;-78
2023/03/15 00:32:26;;;;;;;7.78;1.38;;;3.90;99.90;;;;;;5110046;27;20054;-77
2023/03/15 00:34:53;;;;;;;4.75;0.80;;;2.70;99.90;;;;;;5126848;27;20452;-78
2023/03/15 00:37:20;;;;;;;9.73;1.23;;;2.50;99.90;;;;;;5127531;27;20510;-78
2023/03/15 00:39:47;;;;;;;4.13;0.80;;;2.50;99.90;;;;;;5108762;27;20049;-78
2023/03/15 00:42:14;;;;;;;6.55;1.02;;;2.40;99.90;;;;;;5091220;27;20050;-78
2023/03/15 00:44:46;;;;;;;10.40;1.13;;;2.40;99.90;;;;;;5092996;27;20047;-78
2023/03/15 00:47:13;;;;;;;6.88;0.77;;;3.70;99.90;;;;;;5107765;27;20047;-78
2023/03/15 00:49:40;;;;;;;18.08;1.42;;;2.50;99.90;;;;;;5092579;27;20047;-78
2023/03/15 00:52:06;;;;;;;4.38;1.13;;;2.40;99.90;;;;;;5107754;27;20379;-78
2023/03/15 00:54:32;;;;;;;9.75;0.98;;;2.50;99.90;;;;;;5075517;27;20398;-78
2023/03/15 00:57:01;;;;;;;9.55;1.30;;;2.40;99.90;;;;;;5108822;27;20047;-78
2023/03/15 00:59:28;;;;;;;9.52;1.05;;;2.50;99.90;;;;;;5108163;27;20054;-78
2023/03/15 01:01:55;;;;;;;6.05;0.50;;;2.50;99.90;;;;;;5109304;27;20153;-78
2023/03/15 01:04:20;;;;;;;9.15;0.65;;;2.60;99.90;;;;;;5107788;27;20397;-78
2023/03/15 01:06:46;;;;;;;6.78;0.80;;;3.70;99.90;;;;;;5109558;27;20081;-79
2023/03/15 01:09:12;;;;;;;4.78;0.50;;;2.60;99.90;;;;;;5107987;27;20074;-79
2023/03/15 01:11:38;;;;;;;7.30;1.55;;;2.60;99.90;;;;;;5076734;27;20500;-79
2023/03/15 01:14:04;;;;;;;9.95;0.95;;;2.60;99.90;;;;;;5094487;27;20043;-79
2023/03/15 01:16:30;;;;;;;3.03;0.25;;;2.50;99.90;;;;;;5112476;27;20090;-78
2023/03/15 01:18:56;;;;;;;7.28;0.60;;;2.50;99.90;;;;;;5112977;27;20051;-79
2023/03/15 01:21:23;;;;;;;7.95;0.93;;;2.40;99.90;;;;;;5108591;27;20035;-79
2023/03/15 01:23:49;;;;;;;2.88;0.70;;;2.40;99.90;;;;;;5093135;27;20038;-79
2023/03/15 01:26:16;;;;;;;6.43;0.68;;;3.10;99.90;;;;;;5090899;27;20047;-79
2023/03/15 01:28:42;;;;;;;9.00;0.98;;;2.30;99.90;;;;;;5127013;27;20103;-79
2023/03/15 01:31:29;;;;;;;6.70;1.00;;;2.20;99.90;;;;;;5091650;27;20074;-79
2023/03/15 01:33:56;;;;;;;3.10;0.50;;;2.20;99.90;;;;;;5107030;27;20051;-79
2023/03/15 01:36:22;;;;;;;10.00;1.50;;;2.20;99.90;;;;;;5108489;27;20176;-79
2023/03/15 01:38:51;;;;;;;8.18;1.30;;;2.80;99.90;;;;;;5106958;27;20043;-79
2023/03/15 01:41:18;;;;;;;7.40;0.85;;;2.10;99.90;;;;;;5108691;27;20047;-79
2023/03/15 01:43:47;;;;;;;2.65;0.50;;;3.50;99.90;;;;;;5107498;27;20505;-78
2023/03/15 01:46:22;;;;;;;8.40;0.82;;;3.50;99.90;;;;;;5107362;27;20054;-78
2023/03/15 01:49:02;;;;;;;18.40;1.55;;;3.20;99.90;;;;;;5108244;27;20130;-78
2023/03/15 01:51:38;;;;;;;3.55;0.80;;;2.00;99.90;;;;;;5089603;27;20501;-78
2023/03/15 01:54:06;;;;;;;6.20;0.80;;;1.90;99.90;;;;;;5091197;27;20043;-79
2023/03/15 01:56:34;;;;;;;5.22;0.55;;;1.90;99.90;;;;;;5107592;27;20129;-79
2023/03/15 01:59:02;;;;;;;12.80;1.08;;;1.90;99.90;;;;;;5107430;27;20506;-79
2023/03/15 02:01:30;;;;;;;6.57;0.98;;;1.90;99.90;;;;;;5091053;27;20068;-79
2023/03/15 02:04:06;;;;;;;8.88;1.13;;;1.90;99.90;;;;;;5125078;27;20088;-79
2023/03/15 02:06:33;;;;;;;9.57;0.70;;;2.00;99.90;;;;;;5126517;27;20092;-79
2023/03/15 02:09:07;;;;;;;11.40;1.13;;;1.90;99.90;;;;;;5106610;27;20062;-79
2023/03/15 02:11:34;;;;;;;10.15;1.25;;;2.00;99.90;;;;;;5126385;27;20061;-78
2023/03/15 02:14:02;;;;;;;8.35;1.25;;;2.60;99.90;;;;;;5107567;27;20031;-79
2023/03/15 02:16:29;;;;;;;14.63;1.23;;;3.20;99.90;;;;;;5125354;27;20513;-79
2023/03/15 02:18:55;;;;;;;8.93;1.33;;;1.90;99.90;;;;;;5074722;27;20074;-79
2023/03/15 02:22:02;;;;;;;9.48;1.63;;;1.90;99.90;;;;;;5090013;27;20082;-79
2023/03/15 02:24:43;;;;;;;8.73;0.88;;;1.90;99.90;;;;;;5025977;28;20052;-79
2023/03/15 02:27:09;;;;;;;4.93;1.15;;;1.90;99.90;;;;;;5117158;28;20057;-79
2023/03/15 02:29:35;;;;;;;16.25;1.50;;;1.90;99.90;;;;;;5106771;28;20047;-79
2023/03/15 02:32:04;;;;;;;6.05;1.40;;;1.90;99.90;;;;;;5108579;28;20486;-78
2023/03/15 02:34:30;;;;;;;7.13;1.58;;;1.80;99.90;;;;;;5106270;28;20043;-78
2023/03/15 02:36:56;;;;;;;7.78;1.65;;;1.80;99.90;;;;;;5090799;28;20118;-78
2023/03/15 02:39:23;;;;;;;9.48;1.15;;;1.80;99.90;;;;;;5106820;28;20446;-78
2023/03/15 02:41:53;;;;;;;10.55;1.08;;;1.80;99.90;;;;;;5106645;28;20054;-78
2023/03/15 02:44:25;;;;;;;10.60;1.25;;;1.80;99.90;;;;;;5107598;28;20079;-78
2023/03/15 02:46:53;;;;;;;15.18;1.88;;;1.80;99.90;;;;;;5124295;28;20458;-78
2023/03/15 02:49:24;;;;;;;13.85;1.52;;;1.80;99.90;;;;;;5125884;28;20039;-78
2023/03/15 02:51:50;;;;;;;5.38;0.65;;;1.80;99.90;;;;;;5125234;28;20126;-78
2023/03/15 02:54:16;;;;;;;17.08;1.15;;;1.70;99.90;;;;;;5090558;28;20143;-78
2023/03/15 02:56:42;;;;;;;6.05;0.70;;;1.80;99.90;;;;;;5125711;28;20068;-78
2023/03/15 02:59:07;;;;;;;9.82;1.10;;;1.70;99.90;;;;;;5106103;28;20573;-78
2023/03/15 03:01:35;;;;;;;5.22;0.80;;;1.70;99.90;;;;;;5090660;28;20047;-78
2023/03/15 03:04:02;;;;;;;14.90;1.70;;;1.70;99.90;;;;;;5089031;28;20132;-78
2023/03/15 03:06:34;;;;;;;5.38;0.60;;;1.70;99.90;;;;;;5107507;28;20050;-78
2023/03/15 03:09:03;;;;;;;11.23;1.08;;;1.70;99.90;;;;;;5068860;28;20055;-77
2023/03/15 03:11:29;;;;;;;3.75;1.45;;;1.60;99.90;;;;;;5103382;28;20531;-77
2023/03/15 03:13:55;;;;;;;6.18;0.93;;;1.60;99.90;;;;;;5104271;28;20050;-78
2023/03/15 03:16:21;;;;;;;9.05;0.77;;;2.90;99.90;;;;;;5106431;28;20114;-77
2023/03/15 03:18:47;;;;;;;2.72;0.63;;;1.50;99.90;;;;;;5107964;28;20518;-77
2023/03/15 03:21:13;;;;;;;4.40;0.80;;;1.50;99.90;;;;;;5088678;28;20136;-78
2023/03/15 03:23:39;;;;;;;4.20;0.60;;;1.70;99.90;;;;;;5107451;28;20044;-78
2023/03/15 03:26:15;;;;;;;11.23;0.82;;;1.50;99.90;;;;;;5108090;28;20089;-78
2023/03/15 03:28:42;;;;;;;6.45;1.13;;;1.40;99.90;;;;;;5107086;28;20130;-78
2023/03/15 03:31:15;;;;;;;8.27;1.27;;;2.00;99.90;;;;;;5107823;28;20075;-78
2023/03/15 03:33:41;;;;;;;8.88;1.20;;;1.40;99.90;;;;;;5105974;28;20493;-78
2023/03/15 03:36:07;;;;;;;7.68;1.33;;;1.40;99.90;;;;;;5107926;28;20039;-78
2023/03/15 03:38:33;;;;;;;6.00;0.90;;;1.50;99.90;;;;;;5105499;28;20050;-78
2023/03/15 03:40:58;;;;;;;6.13;1.10;;;2.20;99.90;;;;;;5107019;28;20039;-78
2023/03/15 03:43:24;;;;;;;8.63;1.00;;;1.50;99.90;;;;;;5107625;28;20047;-78
2023/03/15 03:45:50;;;;;;;12.15;1.77;;;1.50;99.90;;;;;;5108219;28;20093;-78
2023/03/15 03:48:15;;;;;;;5.28;0.85;;;1.50;99.90;;;;;;5090030;28;20044;-78
2023/03/15 03:50:41;;;;;;;7.20;1.00;;;1.50;99.90;;;;;;5088771;28;20051;-78
2023/03/15 03:53:07;;;;;;;10.68;0.80;;;1.50;99.90;;;;;;5090369;28;20066;-78
2023/03/15 03:55:32;;;;;;;4.97;0.70;;;1.40;99.90;;;;;;5104966;28;20042;-78
2023/03/15 03:57:59;;;;;;;6.15;1.00;;;1.40;99.90;;;;;;5090686;28;20036;-78
2023/03/15 04:00:24;;;;;;;6.50;1.52;;;1.40;99.90;;;;;;5107637;27;20074;-78
2023/03/15 04:02:52;;;;;;;5.75;0.70;;;1.40;99.90;;;;;;5106698;28;20534;-78
2023/03/15 04:05:19;;;;;;;4.75;0.73;;;2.20;99.90;;;;;;5106582;28;20135;-78
2023/03/15 04:07:44;;;;;;;3.05;0.90;;;1.30;99.90;;;;;;5105385;28;20097;-78
2023/03/15 04:10:13;;;;;;;8.02;0.50;;;1.30;99.90;;;;;;5056087;28;20067;-80
2023/03/15 04:12:42;;;;;;;8.63;0.60;;;1.20;99.90;;;;;;5104853;28;20589;-77
2023/03/15 04:15:10;;;;;;;6.63;0.90;;;1.70;99.90;;;;;;5108316;28;20047;-76
2023/03/15 04:17:37;;;;;;;5.15;0.60;;;1.20;99.90;;;;;;5107207;28;20499;-77
2023/03/15 04:20:09;;;;;;;5.45;0.63;;;1.10;99.90;;;;;;5107673;28;20054;-77
2023/03/15 04:22:35;;;;;;;8.73;0.95;;;1.10;99.90;;;;;;5109007;28;20142;-77
2023/03/15 04:25:00;;;;;;;2.40;0.30;;;1.10;99.90;;;;;;5110147;28;20068;-77
2023/03/15 04:27:27;;;;;;;1.95;0.55;;;1.10;99.90;;;;;;5110601;28;20096;-77
2023/03/15 04:29:53;;;;;;;4.93;0.60;;;2.60;99.90;;;;;;5108573;28;20059;-77
2023/03/15 04:32:19;;;;;;;2.28;0.50;;;1.10;99.90;;;;;;5074584;28;20055;-77
2023/03/15 04:34:50;;;;;;;3.75;0.50;;;1.10;99.90;;;;;;5106278;28;20084;-77
2023/03/15 04:37:17;;;;;;;1.60;0.35;;;1.10;99.90;;;;;;5090910;28;20096;-77
2023/03/15 04:39:43;;;;;;;4.72;1.10;;;1.00;99.90;;;;;;5106477;28;20043;-77
2023/03/15 04:42:09;;;;;;;4.70;0.35;;;1.50;99.90;;;;;;5104938;28;20043;-77
2023/03/15 04:44:35;;;;;;;1.98;0.50;;;0.90;99.90;;;;;;5108554;28;20054;-77
2023/03/15 04:47:01;;;;;;;3.40;0.70;;;0.90;99.90;;;;;;5090989;28;20039;-80
2023/03/15 04:49:27;;;;;;;8.02;0.68;;;0.80;99.90;;;;;;5113225;28;20043;-77
2023/03/15 04:51:53;;;;;;;3.47;0.50;;;0.80;99.90;;;;;;5112525;28;20461;-77
2023/03/15 04:54:18;;;;;;;5.47;0.55;;;0.70;99.90;;;;;;5113274;28;20044;-78
2023/03/15 04:56:44;;;;;;;1.67;0.20;;;0.70;99.90;;;;;;5092198;28;20140;-77
2023/03/15 04:59:10;;;;;;;1.63;0.30;;;0.60;99.90;;;;;;5106864;28;20380;-78
2023/03/15 05:01:36;;;;;;;5.55;0.68;;;0.60;99.90;;;;;;5108257;28;20079;-77
2023/03/15 05:04:02;;;;;;;3.22;0.70;;;1.40;99.90;;;;;;5086995;28;20105;-78
2023/03/15 05:06:28;;;;;;;3.08;0.60;;;0.70;99.90;;;;;;5107470;28;20047;-78
2023/03/15 05:08:54;;;;;;;3.75;0.47;;;0.50;99.90;;;;;;5106210;28;20051;-78
2023/03/15 05:11:19;;;;;;;1.42;0.40;;;0.50;99.90;;;;;;5104971;28;20162;-78
2023/03/15 05:13:45;;;;;;;0.68;0.25;;;0.50;99.90;;;;;;5105487;28;20078;-78
2023/03/15 05:16:11;;;;;;;5.45;0.55;;;0.50;99.90;;;;;;5086998;28;20044;-78
2023/03/15 05:18:37;;;;;;;4.55;0.57;;;0.50;99.90;;;;;;5106111;28;20047;-78
2023/03/15 05:21:04;;;;;;;5.45;0.77;;;0.50;99.90;;;;;;5103690;28;20039;-79
2023/03/15 05:23:32;;;;;;;4.63;0.80;;;0.40;99.90;;;;;;5105788;28;20391;-79
2023/03/15 05:25:59;;;;;;;3.55;0.60;;;0.40;99.90;;;;;;5104218;28;20043;-79
2023/03/15 05:28:25;;;;;;;5.40;0.70;;;0.40;99.90;;;;;;5106653;28;20130;-79
2023/03/15 05:30:52;;;;;;;4.80;0.70;;;0.40;99.90;;;;;;5106383;28;20036;-79
2023/03/15 05:33:18;;;;;;;7.88;0.50;;;0.40;99.90;;;;;;5105498;28;20039;-79
2023/03/15 05:35:44;;;;;;;4.10;0.68;;;0.40;99.90;;;;;;5105133;28;20328;-79
2023/03/15 05:38:14;;;;;;;2.90;0.63;;;0.40;99.90;;;;;;5104659;28;20240;-79
2023/03/15 05:40:44;;;;;;;5.30;0.68;;;0.40;99.90;;;;;;5088041;28;20051;-79
2023/03/15 05:43:10;;;;;;;5.28;0.70;;;0.40;99.90;;;;;;5086919;28;20053;-79
2023/03/15 05:45:36;;;;;;;1.48;0.52;;;1.30;99.90;;;;;;5105787;28;20126;-79
2023/03/15 05:48:03;;;;;;;6.07;0.85;;;0.40;99.90;;;;;;5104697;28;20160;-79
2023/03/15 05:50:28;;;;;;;1.90;0.40;;;0.50;99.90;;;;;;5103403;28;20043;-78
2023/03/15 05:52:55;;;;;;;5.90;1.00;;;0.50;99.90;;;;;;5105270;28;20036;-80
2023/03/15 05:55:21;;;;;;;6.70;0.93;;;0.60;99.90;;;;;;5103296;28;20039;-81
2023/03/15 05:57:47;;;;;;;5.18;0.95;;;0.70;99.90;;;;;;5071124;28;20039;-77
2023/03/15 06:00:14;;;;;;;6.50;0.80;;;1.30;99.90;;;;;;5086704;28;20126;-77
2023/03/15 06:02:44;;;;;;;7.75;0.80;;;0.90;99.90;;;;;;5104166;28;20058;-77
2023/03/15 06:05:09;;;;;;;9.73;1.65;;;1.00;99.90;;;;;;5104925;28;20141;-77
2023/03/15 06:07:35;;;;;;;5.78;1.23;;;1.00;99.90;;;;;;5069262;28;20127;-77
2023/03/15 06:10:01;;;;;;;5.78;1.10;;;1.10;99.90;;;;;;5110816;27;20414;-77
2023/03/15 06:12:28;;;;;;;12.93;1.38;;;1.10;99.90;;;;;;5124584;27;20062;-77
2023/03/15 06:14:53;;;;;;;5.78;2.08;;;1.10;99.90;;;;;;5108378;27;20103;-76
2023/03/15 06:17:19;;;;;;;13.10;3.50;;;2.60;99.90;;;;;;5106637;27;20039;-76
2023/03/15 06:19:44;;;;;;;15.00;1.52;;;1.20;99.90;;;;;;5107176;27;20043;-77
2023/03/15 06:22:10;;;;;;;4.30;0.88;;;1.20;99.90;;;;;;5073625;27;20051;-76
2023/03/15 06:24:36;;;;;;;5.75;1.10;;;1.20;99.90;;;;;;5106403;27;20035;-77
2023/03/15 06:27:02;;;;;;;4.60;1.15;;;2.00;99.90;;;;;;5090852;28;20505;-77
2023/03/15 06:29:27;;;;;;;8.57;1.23;;;1.20;99.90;;;;;;5106493;28;20043;-76
2023/03/15 06:31:53;;;;;;;3.97;0.60;;;1.20;99.90;;;;;;5107761;28;20042;-76
2023/03/15 06:34:20;;;;;;;14.40;1.65;;;1.20;99.90;;;;;;5089500;28;20043;-77
2023/03/15 06:36:46;;;;;;;8.65;1.63;;;1.20;99.90;;;;;;5090284;28;20039;-79
2023/03/15 06:39:12;;;;;;;9.63;1.27;;;1.30;99.90;;;;;;5107152;28;20130;-77
2023/03/15 06:41:40;;;;;;;9.50;1.33;;;1.30;99.90;;;;;;5106359;28;20363;-79
2023/03/15 06:44:06;;;;;;;5.85;1.02;;;1.40;99.90;;;;;;5108240;28;20428;-79
2023/03/15 06:46:32;;;;;;;5.53;1.20;;;1.40;99.90;;;;;;5089574;28;20051;-77
2023/03/15 06:48:58;;;;;;;8.88;1.00;;;2.70;99.90;;;;;;5126919;27;20054;-77
2023/03/15 06:51:24;;;;;;;2.78;0.80;;;1.60;99.90;;;;;;5110558;27;20112;-78
2023/03/15 06:53:50;;;;;;;5.97;1.00;;;1.50;99.90;;;;;;5111288;27;20205;-76
2023/03/15 06:56:15;;;;;;;7.70;0.98;;;1.50;99.90;;;;;;5077173;27;20043;-76
2023/03/15 06:58:41;;;;;;;10.35;1.33;;;1.50;99.90;;;;;;5110393;27;20043;-76
2023/03/15 07:01:07;;;;;;;3.83;1.20;;;1.60;99.90;;;;;;5094863;27;20039;-76
2023/03/15 07:03:33;;;;;;;9.98;1.40;;;1.60;99.90;;;;;;5109756;27;20486;-80
2023/03/15 07:05:58;;;;;;;10.15;1.45;;;1.70;99.90;;;;;;5111444;27;20047;-77
2023/03/15 07:08:24;;;;;;;7.47;1.20;;;1.80;99.90;;;;;;5093418;27;20039;-75
2023/03/15 07:10:50;;;;;;;6.68;0.93;;;1.90;99.90;;;;;;5111026;27;20732;-75
2023/03/15 07:13:18;;;;;;;12.63;1.10;;;1.90;99.90;;;;;;5110834;27;20051;-76
2023/03/15 07:15:43;;;;;;;8.60;1.00;;;2.00;99.90;;;;;;5110101;27;20482;-76
2023/03/15 07:18:09;;;;;;;8.32;0.82;;;2.10;99.90;;;;;;5111181;27;20054;-76
2023/03/15 07:20:35;;;;;;;10.95;2.67;;;2.10;99.90;;;;;;5109156;27;20062;-75
2023/03/15 07:23:01;;;;;;;8.70;1.95;;;2.20;99.90;;;;;;5111219;27;20084;-76
2023/03/15 07:25:26;;;;;;;15.23;1.77;;;2.30;99.90;;;;;;5092464;27;20084;-76
2023/03/15 07:27:52;;;;;;;5.25;0.70;;;2.40;99.90;;;;;;5093903;27;20050;-75
2023/03/15 07:30:20;;;;;;;4.97;0.93;;;2.40;99.90;;;;;;5110372;27;20142;-75
2023/03/15 07:32:45;;;;;;;16.17;1.13;;;2.50;99.90;;;;;;5076471;27;20039;-75
2023/03/15 07:35:12;;;;;;;7.80;1.10;;;2.60;99.90;;;;;;5093877;27;20047;-76
2023/03/15 07:37:38;;;;;;;10.50;1.35;;;2.70;99.90;;;;;;5109648;27;20046;-76
2023/03/15 07:40:08;;;;;;;25.50;1.73;;;2.80;99.90;;;;;;5129500;27;20485;-77
2023/03/15 07:42:38;;;;;;;10.15;0.90;;;2.90;99.90;;;;;;5109117;27;20051;-76
2023/03/15 07:45:08;;;;;;;12.70;1.10;;;3.00;99.90;;;;;;5110689;27;20082;-77
2023/03/15 07:47:34;;;;;;;13.15;1.95;;;3.10;99.90;;;;;;5110529;27;20039;-76
2023/03/15 07:49:59;;;;;;;8.27;2.28;;;3.10;99.90;;;;;;5109851;27;20491;-76
2023/03/15 07:52:25;;;;;;;6.95;1.15;;;3.20;99.90;;;;;;5093594;27;20050;-76
2023/03/15 07:54:51;;;;;;;11.48;1.20;;;3.30;99.90;;;;;;5074666;27;20047;-77
2023/03/15 07:57:17;;;;;;;6.95;0.98;;;4.60;99.90;;;;;;5094524;27;20439;-75
2023/03/15 07:59:42;;;;;;;13.15;1.45;;;3.50;99.90;;;;;;5075003;27;20474;-76
2023/03/15 08:02:13;;;;;;;6.10;0.82;;;3.70;99.90;;;;;;5110153;27;20066;-76
2023/03/15 08:04:39;;;;;;;9.20;1.30;;;3.70;99.90;;;;;;5109679;27;20047;-75
2023/03/15 08:07:05;;;;;;;7.35;0.95;;;3.80;99.90;;;;;;5109509;27;20167;-76
2023/03/15 08:09:34;;;;;;;3.80;1.10;;;3.90;99.90;;;;;;5128500;27;20051;-76
2023/03/15 08:12:00;;;;;;;7.28;1.60;;;4.00;99.90;;;;;;5108383;27;20047;-76
2023/03/15 08:14:26;;;;;;;18.05;2.00;;;5.00;99.90;;;;;;5093806;27;20425;-76
2023/03/15 08:16:52;;;;;;;14.75;1.05;;;4.20;99.90;;;;;;5108465;27;20807;-76
2023/03/15 08:19:18;;;;;;;6.90;1.20;;;4.30;99.90;;;;;;5093044;27;20047;-76
2023/03/15 08:21:44;;;;;;;8.77;1.33;;;4.80;99.90;;;;;;5109691;27;20405;-76
2023/03/15 08:24:14;;;;;;;13.23;1.80;;;4.50;99.90;;;;;;5109629;27;20566;-76
2023/03/15 08:26:42;;;;;;;8.63;0.98;;;5.20;99.90;;;;;;5109787;27;20130;-75
2023/03/15 08:29:08;;;;;;;8.52;2.10;;;4.70;99.90;;;;;;5091729;27;20451;-76
2023/03/15 08:31:33;;;;;;;11.88;2.15;;;4.80;99.90;;;;;;5128482;27;20043;-76
2023/03/15 08:33:59;;;;;;;12.23;1.67;;;4.90;99.90;;;;;;5126786;27;20045;-76
2023/03/15 08:36:25;;;;;;;11.15;1.27;;;5.10;99.90;;;;;;5109881;27;20074;-76
2023/03/15 08:38:50;;;;;;;4.70;1.17;;;5.40;99.90;;;;;;5127684;27;20397;-76
2023/03/15 08:41:16;;;;;;;6.05;1.13;;;5.30;99.90;;;;;;5127527;27;20079;-75
2023/03/15 08:43:42;;;;;;;11.75;1.42;;;5.40;99.90;;;;;;5110201;27;20323;-76
2023/03/15 08:46:07;;;;;;;7.25;1.10;;;5.50;99.90;;;;;;5126453;27;20079;-76
2023/03/15 08:48:33;;;;;;;8.85;1.00;;;5.60;99.90;;;;;;5109678;27;20035;-76
2023/03/15 08:51:04;;;;;;;5.65;0.90;;;5.70;99.90;;;;;;5108099;27;20051;-76
2023/03/15 08:53:30;;;;;;;8.52;1.05;;;5.70;99.90;;;;;;5092116;27;20073;-76
2023/03/15 08:55:56;;;;;;;12.07;1.58;;;5.80;99.90;;;;;;5108473;27;20111;-76
2023/03/15 08:58:21;;;;;;;9.75;0.90;;;5.90;99.90;;;;;;5091496;27;20093;-76
2023/03/15 09:00:51;;;;;;;8.35;0.73;;;6.00;99.90;;;;;;5108848;27;20078;-76
2023/03/15 09:03:21;;;;;;;8.93;1.10;;;6.20;99.90;;;;;;5107438;27;20051;-76
2023/03/15 09:05:47;;;;;;;7.82;0.88;;;6.50;99.90;;;;;;5128200;27;20114;-77
2023/03/15 09:08:13;;;;;;;6.05;0.60;;;6.80;99.90;;;;;;5090973;27;20075;-76
2023/03/15 09:10:39;;;;;;;11.23;2.00;;;7.70;99.90;;;;;;5074900;27;20050;-76
2023/03/15 09:13:04;;;;;;;3.45;0.90;;;6.60;99.90;;;;;;5090504;27;20187;-76
2023/03/15 09:15:30;;;;;;;8.15;1.55;;;6.60;99.90;;;;;;5091539;27;20046;-77
2023/03/15 09:17:56;;;;;;;13.30;0.88;;;7.20;99.90;;;;;;5108811;27;20449;-77
2023/03/15 09:20:26;;;;;;;10.95;0.95;;;7.00;99.90;;;;;;5107639;27;20039;-76
2023/03/15 09:22:54;;;;;;;3.75;1.10;;;6.80;99.90;;;;;;5108984;27;20051;-77
2023/03/15 09:25:21;;;;;;;9.52;0.73;;;6.80;99.90;;;;;;5107351;27;20124;-76
2023/03/15 09:27:47;;;;;;;10.82;1.08;;;6.90;99.90;;;;;;5074894;27;20043;-76
2023/03/15 09:30:14;;;;;;;10.20;1.17;;;7.00;99.90;;;;;;5107959;27;20050;-76
2023/03/15 09:32:39;;;;;;;9.73;0.98;;;7.20;99.90;;;;;;5090753;27;20126;-77
2023/03/15 09:35:08;;;;;;;8.88;1.17;;;7.30;99.90;;;;;;5108331;27;20150;-77
2023/03/15 09:37:34;;;;;;;10.20;1.00;;;7.40;99.90;;;;;;5107298;27;20039;-76
2023/03/15 09:40:00;;;;;;;8.93;1.00;;;7.50;99.90;;;;;;5108541;27;20547;-77
2023/03/15 09:42:48;;;;;;;5.97;0.93;;;7.70;99.90;;;;;;5107119;27;20125;-77
2023/03/15 09:45:16;;;;;;;8.25;1.00;;;7.70;99.90;;;;;;5107739;27;20138;-77
2023/03/15 09:48:04;;;;;;;11.63;1.08;;;7.90;99.90;;;;;;5108428;27;20047;-77
2023/03/15 09:51:08;;;;;;;5.32;0.93;;;7.90;99.90;;;;;;5106941;27;20051;-77
2023/03/15 09:53:49;;;;;;;7.40;0.85;;;8.10;99.90;;;;;;5080056;27;20047;-76
2023/03/15 09:56:28;;;;;;;9.15;1.15;;;8.30;99.90;;;;;;5090928;27;20046;-77
2023/03/15 09:58:58;;;;;;;6.10;0.88;;;8.30;99.90;;;;;;5089757;27;20612;-77
2023/03/15 10:01:38;;;;;;;5.20;1.00;;;8.30;99.90;;;;;;5108586;27;20043;-76
2023/03/15 10:04:29;;;;;;;6.95;0.90;;;8.40;99.90;;;;;;5107458;27;20069;-77
2023/03/15 10:06:58;;;;;;;7.47;1.70;;;8.50;99.90;;;;;;5097870;27;20059;-77
2023/03/15 10:09:28;;;;;;;10.35;1.80;;;8.50;99.90;;;;;;5090949;27;20044;-77
2023/03/15 10:12:07;;;;;;;11.73;1.02;;;8.60;99.90;;;;;;5106366;27;20118;-77
2023/03/15 10:15:14;;;;;;;7.40;1.00;;;8.70;99.90;;;;;;5108023;27;20088;-77
2023/03/15 10:17:46;;;;;;;8.68;0.80;;;8.70;99.90;;;;;;5107739;27;20049;-76
2023/03/15 10:20:17;;;;;;;6.10;0.80;;;8.80;99.90;;;;;;5106320;27;20402;-76
2023/03/15 10:23:09;;;;;;;5.22;1.10;;;8.90;99.90;;;;;;5107902;27;20043;-77
2023/03/15 10:25:36;;;;;;;11.57;1.23;;;8.90;99.90;;;;;;5089806;27;20043;-77
2023/03/15 10:28:26;;;;;;;7.28;0.43;;;8.80;99.90;;;;;;5107214;28;20039;-77
2023/03/15 10:30:53;;;;;;;8.13;1.02;;;8.80;99.90;;;;;;5091173;28;20119;-76
2023/03/15 10:33:33;;;;;;;6.50;0.65;;;8.90;99.90;;;;;;5088865;28;20047;-76
2023/03/15 10:36:00;;;;;;;9.93;1.05;;;9.00;99.90;;;;;;5126249;28;20050;-75
2023/03/15 10:38:26;;;;;;;5.53;0.77;;;9.20;99.90;;;;;;5107227;28;20073;-76
2023/03/15 10:40:58;;;;;;;13.32;1.80;;;9.30;99.90;;;;;;5125594;28;20070;-76
2023/03/15 10:43:31;;;;;;;6.63;1.00;;;9.50;99.90;;;;;;5107853;28;20460;-76
2023/03/15 10:46:00;;;;;;;8.20;1.25;;;9.60;99.90;;;;;;5124438;28;20478;-76
2023/03/15 10:48:32;;;;;;;4.60;0.82;;;9.50;98.50;;;;;;5126507;28;20047;-76
2023/03/15 10:51:24;;;;;;;5.20;0.85;;;9.30;99.60;;;;;;5105982;28;20096;-76
2023/03/15 10:53:58;;;;;;;8.35;0.95;;;9.10;97.80;;;;;;5102851;28;20051;-75
2023/03/15 10:56:26;;;;;;;4.57;0.98;;;8.80;99.20;;;;;;5091021;28;20123;-75
2023/03/15 10:58:54;;;;;;;9.43;1.27;;;8.70;99.90;;;;;;5124197;28;20049;-76
2023/03/15 11:01:33;;;;;;;8.38;0.80;;;9.00;99.90;;;;;;5126082;28;20074;-76
2023/03/15 11:04:12;;;;;;;6.18;0.77;;;9.30;99.90;;;;;;5124893;28;20082;-76
2023/03/15 11:06:50;;;;;;;8.57;1.40;;;9.50;99.90;;;;;;5125671;28;20143;-76
2023/03/15 11:09:21;;;;;;;11.88;1.02;;;11.00;99.90;;;;;;5107573;28;20051;-78
2023/03/15 11:12:01;;;;;;;9.02;1.60;;;9.70;99.90;;;;;;5105126;28;20055;-79
2023/03/15 11:14:32;;;;;;;6.38;1.05;;;9.40;99.40;;;;;;5106992;28;20510;-76
2023/03/15 11:17:01;;;;;;;6.05;0.85;;;9.40;99.40;;;;;;5106083;28;20081;-76
2023/03/15 11:19:30;;;;;;;7.47;1.10;;;9.60;99.30;;;;;;5124993;28;20575;-76
2023/03/15 11:21:58;;;;;;;10.02;1.05;;;9.70;98.00;;;;;;5106869;28;20058;-76
2023/03/15 11:24:27;;;;;;;6.30;0.75;;;9.70;97.30;;;;;;5124120;28;20035;-75
2023/03/15 11:26:55;;;;;;;3.72;0.95;;;9.70;97.30;;;;;;5126036;28;20069;-78
2023/03/15 11:29:20;;;;;;;6.10;0.73;;;9.90;97.70;;;;;;5123962;28;20439;-76
2023/03/15 11:31:47;;;;;;;5.88;1.17;;;9.90;97.20;;;;;;5107349;28;20050;-75
2023/03/15 11:34:23;;;;;;;4.57;0.77;;;10.00;96.60;;;;;;5125019;27;20039;-80
2023/03/15 11:36:55;;;;;;;5.03;1.40;;;10.00;95.90;;;;;;5109710;27;20036;-77
2023/03/15 11:39:44;;;;;;;5.75;0.93;;;10.00;94.90;;;;;;5129788;27;20043;-76
2023/03/15 11:42:19;;;;;;;6.95;0.65;;;10.20;92.30;;;;;;5108966;27;20043;-76
2023/03/15 11:44:53;;;;;;;17.75;1.27;;;10.20;94.20;;;;;;5110664;27;20130;-76
2023/03/15 11:47:49;;;;;;;3.35;0.90;;;10.20;94.10;;;;;;5110117;27;20047;-76
2023/03/15 11:50:15;;;;;;;4.18;0.60;;;10.20;91.00;;;;;;5107398;27;20055;-76
2023/03/15 11:52:42;;;;;;;5.55;0.77;;;10.10;92.60;;;;;;5129359;27;20039;-76
2023/03/15 11:55:23;;;;;;;8.80;1.08;;;10.00;91.90;;;;;;5127566;27;20130;-76
2023/03/15 11:57:49;;;;;;;6.32;0.88;;;9.90;89.80;;;;;;5110454;27;20498;-76
2023/03/15 12:00:33;;;;;;;8.73;1.80;;;9.80;90.80;;;;;;5128991;27;20406;-77
2023/03/15 12:03:33;;;;;;;9.18;0.80;;;9.90;91.00;;;;;;5108752;27;20035;-77
2023/03/15 12:06:33;;;;;;;9.40;0.95;;;9.90;90.20;;;;;;5111107;27;20043;-77
2023/03/15 12:09:00;;;;;;;4.82;0.57;;;10.00;90.60;;;;;;5093796;27;20047;-76
2023/03/15 12:11:26;;;;;;;7.05;1.90;;;10.10;91.20;;;;;;5127082;27;20071;-76
2023/03/15 12:14:01;;;;;;;7.53;0.60;;;10.30;91.20;;;;;;5110473;27;20047;-76
2023/03/15 12:16:36;;;;;;;4.65;0.82;;;10.30;88.40;;;;;;5091454;27;20059;-77
2023/03/15 12:19:09;;;;;;;4.05;1.02;;;10.20;88.40;;;;;;5110533;27;20101;-78
2023/03/15 12:21:43;;;;;;;4.50;0.80;;;10.30;89.80;;;;;;5109718;27;20076;-77
2023/03/15 12:24:30;;;;;;;9.18;1.42;;;10.30;90.00;;;;;;5108943;27;20047;-77
2023/03/15 12:27:14;;;;;;;3.80;0.70;;;10.40;84.80;;;;;;5128576;27;20459;-77
2023/03/15 12:29:43;;;;;;;4.38;0.75;;;10.40;86.40;;;;;;5109129;27;20043;-77
2023/03/15 12:32:16;;;;;;;6.75;0.90;;;10.50;88.30;;;;;;5128042;27;20122;-77
2023/03/15 12:34:47;;;;;;;7.53;0.85;;;10.70;87.00;;;;;;5093182;27;20499;-77
2023/03/15 12:37:24;;;;;;;2.55;0.60;;;10.60;86.10;;;;;;5126842;27;20127;-77
2023/03/15 12:39:51;;;;;;;5.57;0.65;;;10.60;84.00;;;;;;5128567;27;20167;-79
2023/03/15 12:42:32;;;;;;;5.88;0.55;;;10.60;84.70;;;;;;5108383;27;20092;-78
2023/03/15 12:45:16;;;;;;;6.75;0.98;;;10.60;82.20;;;;;;5092417;27;20047;-78
2023/03/15 12:47:51;;;;;;;8.52;1.08;;;10.70;81.00;;;;;;5108454;27;20047;-77
2023/03/15 12:50:44;;;;;;;5.18;0.77;;;10.80;79.50;;;;;;5107742;27;20057;-77
2023/03/15 12:53:38;;;;;;;5.45;0.60;;;10.80;79.30;;;;;;5109151;27;20675;-77
2023/03/15 12:56:35;;;;;;;7.90;1.75;;;10.90;81.50;;;;;;5109699;27;20046;-77
2023/03/15 12:59:36;;;;;;;7.65;0.90;;;11.10;80.00;;;;;;5107612;27;20043;-77
2023/03/15 13:02:07;;;;;;;4.15;0.88;;;11.10;79.80;;;;;;5108620;27;20155;-77
2023/03/15 13:04:33;;;;;;;6.45;0.75;;;10.90;80.60;;;;;;5108985;27;20050;-77